createdAt,value
2018-10-16T00:02:17.216Z,13.00
2018-10-16T00:04:51.088Z,13.10
2018-10-16T00:07:24.946Z,12.87
2018-10-16T00:09:58.764Z,13.30
2018-10-16T00:12:32.680Z,12.00
2018-10-16T00:15:07.137Z,14.20
2018-10-16T00:17:41.727Z,12.60
2018-10-16T00:20:15.595Z,12.77
2018-10-16T00:22:49.485Z,12.80
2018-10-16T00:25:23.521Z,11.93
2018-10-16T00:27:57.309Z,12.50
2018-10-16T00:30:31.193Z,12.50
2018-10-16T00:33:05.172Z,12.30
2018-10-16T00:35:39.064Z,11.77
2018-10-16T00:38:12.904Z,12.60
2018-10-16T00:40:46.735Z,12.73
2018-10-16T00:43:20.653Z,12.30
2018-10-16T00:45:54.410Z,12.40
2018-10-16T00:48:28.545Z,12.37
2018-10-16T00:51:02.662Z,13.37
2018-10-16T00:53:36.687Z,13.43
2018-10-16T00:56:10.490Z,12.60
2018-10-16T00:58:44.374Z,12.83
2018-10-16T01:01:22.350Z,12.30
2018-10-16T01:03:56.114Z,12.57
2018-10-16T01:06:30.225Z,13.90
2018-10-16T01:09:08.023Z,13.10
2018-10-16T01:11:41.888Z,12.50
2018-10-16T01:14:15.729Z,13.10
2018-10-16T01:16:50.420Z,12.67
2018-10-16T01:19:24.367Z,12.70
2018-10-16T01:21:58.546Z,13.10
2018-10-16T01:24:32.435Z,13.00
2018-10-16T01:27:06.446Z,12.87
2018-10-16T01:29:40.340Z,13.20
2018-10-16T01:32:14.100Z,13.10
2018-10-16T01:34:48.168Z,13.13
2018-10-16T01:37:21.974Z,13.20
2018-10-16T01:39:55.893Z,12.00
2018-10-16T01:42:29.708Z,12.60
2018-10-16T01:45:03.912Z,12.60
2018-10-16T01:47:37.888Z,13.40
2018-10-16T01:50:11.661Z,13.17
2018-10-16T01:52:45.721Z,12.40
2018-10-16T01:55:19.670Z,12.10
2018-10-16T01:57:53.448Z,12.20
2018-10-16T02:00:27.481Z,12.67
2018-10-16T02:03:01.368Z,12.80
2018-10-16T02:05:35.380Z,13.40
2018-10-16T02:08:09.744Z,13.57
2018-10-16T02:10:43.789Z,13.70
2018-10-16T02:13:18.504Z,12.93
2018-10-16T02:15:55.437Z,13.00
2018-10-16T02:18:29.377Z,13.87
2018-10-16T02:21:03.455Z,13.30
2018-10-16T02:23:38.090Z,13.10
2018-10-16T02:26:12.830Z,14.30
2018-10-16T02:28:46.770Z,13.77
2018-10-16T02:31:20.637Z,13.33
2018-10-16T02:33:54.616Z,13.63
2018-10-16T02:36:28.582Z,13.87
2018-10-16T02:39:02.673Z,13.50
2018-10-16T02:41:36.486Z,13.53
2018-10-16T02:44:10.499Z,15.53
2018-10-16T02:46:44.389Z,13.87
2018-10-16T02:49:18.297Z,13.93
2018-10-16T02:51:52.684Z,13.00
2018-10-16T02:54:26.671Z,14.20
2018-10-16T02:57:00.625Z,13.53
2018-10-16T02:59:34.883Z,14.07
2018-10-16T03:02:08.839Z,13.03
2018-10-16T03:04:42.777Z,13.93
2018-10-16T03:07:16.925Z,13.83
2018-10-16T03:09:51.060Z,14.50
2018-10-16T03:12:25.078Z,14.07
2018-10-16T03:15:00.043Z,13.73
2018-10-16T03:17:34.175Z,13.43
2018-10-16T03:20:08.774Z,13.47
2018-10-16T03:22:43.875Z,13.00
2018-10-16T03:25:18.102Z,14.07
2018-10-16T03:27:52.464Z,13.63
2018-10-16T03:30:26.566Z,13.80
2018-10-16T03:33:00.774Z,13.47
2018-10-16T03:35:35.509Z,14.07
2018-10-16T03:38:09.398Z,13.43
2018-10-16T03:40:43.381Z,14.90
2018-10-16T03:43:17.610Z,14.50
2018-10-16T03:45:51.454Z,14.03
2018-10-16T03:48:25.598Z,15.10
2018-10-16T03:50:59.502Z,14.47
2018-10-16T03:53:33.441Z,14.53
2018-10-16T03:56:07.249Z,14.80
2018-10-16T03:58:41.173Z,13.57
2018-10-16T04:01:15.051Z,13.83
2018-10-16T04:03:49.342Z,13.70
2018-10-16T04:06:23.559Z,13.73
2018-10-16T04:08:57.508Z,13.87
2018-10-16T04:11:31.370Z,15.03
2018-10-16T04:14:05.472Z,13.70
2018-10-16T04:16:39.342Z,14.90
2018-10-16T04:19:13.374Z,13.50
2018-10-16T04:21:47.819Z,14.23
2018-10-16T04:24:21.692Z,13.97
2018-10-16T04:26:55.914Z,13.23
2018-10-16T04:29:29.736Z,14.03
2018-10-16T04:32:03.546Z,14.27
2018-10-16T04:34:37.454Z,14.30
2018-10-16T04:37:11.288Z,14.23
2018-10-16T04:39:45.058Z,14.20
2018-10-16T04:42:18.910Z,14.90
2018-10-16T04:44:52.707Z,14.83
2018-10-16T04:47:26.572Z,14.80
2018-10-16T04:50:00.644Z,14.70
2018-10-16T04:52:34.621Z,14.13
2018-10-16T04:55:08.630Z,15.43
2018-10-16T04:57:42.748Z,14.27
2018-10-16T05:00:16.680Z,14.47
2018-10-16T05:02:50.685Z,13.63
2018-10-16T05:05:24.816Z,14.20
2018-10-16T05:07:58.890Z,15.50
2018-10-16T05:10:32.871Z,14.57
2018-10-16T05:13:06.872Z,14.33
2018-10-16T05:15:41.199Z,15.27
2018-10-16T05:18:16.014Z,14.67
2018-10-16T05:20:49.923Z,14.83
2018-10-16T05:23:23.786Z,14.20
2018-10-16T05:25:57.760Z,15.83
2018-10-16T05:28:32.763Z,15.03
2018-10-16T05:31:06.834Z,15.27
2018-10-16T05:33:40.662Z,15.27
2018-10-16T05:36:14.556Z,15.40
2018-10-16T05:38:48.619Z,15.20
2018-10-16T05:41:22.943Z,15.10
2018-10-16T05:43:56.910Z,15.17
2018-10-16T05:46:30.857Z,15.30
2018-10-16T05:49:04.845Z,16.00
2018-10-16T05:51:38.820Z,14.50
2018-10-16T05:54:12.753Z,14.23
2018-10-16T05:56:46.728Z,15.13
2018-10-16T05:59:20.822Z,15.93
2018-10-16T06:01:54.822Z,16.27
2018-10-16T06:04:28.935Z,16.23
2018-10-16T06:07:02.976Z,18.50
2018-10-16T06:09:37.037Z,17.77
2018-10-16T06:12:11.061Z,18.33
2018-10-16T06:14:44.857Z,17.47
2018-10-16T06:17:18.891Z,18.97
2018-10-16T06:19:52.695Z,18.67
2018-10-16T06:22:26.534Z,18.80
2018-10-16T06:25:00.450Z,17.90
2018-10-16T06:27:34.526Z,17.93
2018-10-16T06:30:08.996Z,18.13
2018-10-16T06:32:42.994Z,17.30
2018-10-16T06:35:17.017Z,17.20
2018-10-16T06:37:51.232Z,19.33
2018-10-16T06:40:25.209Z,17.70
2018-10-16T06:42:59.364Z,17.57
2018-10-16T06:45:33.352Z,18.40
2018-10-16T06:48:07.687Z,17.80
2018-10-16T06:50:41.597Z,18.43
2018-10-16T06:53:15.614Z,19.30
2018-10-16T06:55:49.669Z,19.10
2018-10-16T06:58:23.569Z,18.30
2018-10-16T07:00:57.908Z,18.70
2018-10-16T07:03:31.939Z,18.43
2018-10-16T07:06:05.977Z,18.33
2018-10-16T07:08:40.246Z,18.03
2018-10-16T07:13:51.884Z,16.77
2018-10-16T07:16:26.573Z,17.30
2018-10-16T07:19:12.160Z,16.63
2018-10-16T07:21:46.179Z,15.57
2018-10-16T07:24:20.281Z,12.87
2018-10-16T07:26:54.298Z,12.80
2018-10-16T07:29:28.720Z,12.77
2018-10-16T07:32:03.654Z,12.30
2018-10-16T07:34:39.307Z,10.90
2018-10-16T07:37:13.358Z,10.13
2018-10-16T07:39:47.409Z,10.50
2018-10-16T07:42:21.797Z,9.83
2018-10-16T07:45:00.491Z,9.87
2018-10-16T07:47:34.529Z,8.33
2018-10-16T07:50:14.851Z,8.00
2018-10-16T07:52:49.389Z,7.67
2018-10-16T07:55:25.007Z,6.60
2018-10-16T07:58:00.996Z,6.83
2018-10-16T08:00:35.876Z,7.20
2018-10-16T08:03:18.490Z,7.70
2018-10-16T08:05:55.025Z,7.17
2018-10-16T08:08:33.191Z,6.90
2018-10-16T08:11:07.538Z,6.20
2018-10-16T08:13:41.588Z,6.47
2018-10-16T08:16:15.587Z,6.73
2018-10-16T08:18:51.506Z,6.20
2018-10-16T08:24:06.226Z,5.90
2018-10-16T08:26:43.220Z,4.70
2018-10-16T08:29:17.794Z,5.30
2018-10-16T08:31:59.503Z,5.50
2018-10-16T08:34:35.838Z,5.20
2018-10-16T08:37:12.264Z,5.20
2018-10-16T08:39:56.195Z,5.03
2018-10-16T08:43:34.297Z,4.87
2018-10-16T08:46:15.433Z,4.97
2018-10-16T08:48:55.075Z,5.40
2018-10-16T08:51:40.317Z,4.50
2018-10-16T08:54:16.050Z,4.20
2018-10-16T08:56:51.426Z,4.53
2018-10-16T08:59:26.985Z,4.53
2018-10-16T09:04:46.448Z,4.50
2018-10-16T09:07:27.739Z,4.63
2018-10-16T09:10:02.236Z,4.47
2018-10-16T09:12:37.357Z,4.93
2018-10-16T09:15:11.383Z,4.30
2018-10-16T09:17:46.595Z,4.50
2018-10-16T09:20:20.874Z,4.57
2018-10-16T09:22:57.807Z,3.90
2018-10-16T09:25:38.435Z,4.60
2018-10-16T09:28:19.167Z,4.27
2018-10-16T09:30:54.159Z,4.73
2018-10-16T09:33:28.175Z,4.00
2018-10-16T09:36:06.969Z,4.73
2018-10-16T09:38:44.938Z,4.43
2018-10-16T09:41:31.234Z,4.13
2018-10-16T09:44:36.122Z,4.33
2018-10-16T09:47:12.136Z,4.03
2018-10-16T09:49:46.561Z,3.97
2018-10-16T09:52:21.159Z,3.90
2018-10-16T09:54:57.400Z,4.20
2018-10-16T09:57:31.407Z,3.63
2018-10-16T10:00:07.391Z,3.83
2018-10-16T10:02:41.271Z,3.83
2018-10-16T10:05:17.711Z,4.00
2018-10-16T10:07:58.006Z,3.90
2018-10-16T10:10:32.331Z,3.27
2018-10-16T10:16:15.233Z,3.40
2018-10-16T10:18:51.853Z,3.23
2018-10-16T10:21:33.561Z,3.77
2018-10-16T10:32:24.509Z,3.50
2018-10-16T10:35:26.550Z,3.80
2018-10-16T10:38:00.809Z,3.30
2018-10-16T10:40:50.263Z,3.07
2018-10-16T10:46:09.828Z,3.07
2018-10-16T10:48:44.364Z,2.90
2018-10-16T10:56:48.465Z,2.80
2018-10-16T10:59:23.791Z,3.07
2018-10-16T11:04:44.052Z,2.50
2018-10-16T11:07:27.134Z,2.80
2018-10-16T11:10:08.824Z,2.87
2018-10-16T11:12:49.020Z,2.80
2018-10-16T11:15:26.641Z,3.00
2018-10-16T11:20:46.359Z,2.67
2018-10-16T11:23:24.026Z,2.70
2018-10-16T11:26:09.483Z,2.60
2018-10-16T11:28:50.164Z,3.20
2018-10-16T11:31:24.382Z,2.57
2018-10-16T11:37:13.609Z,2.23
2018-10-16T11:39:56.555Z,2.40
2018-10-16T11:42:35.663Z,2.30
2018-10-16T11:47:49.682Z,2.40
2018-10-16T11:50:34.326Z,2.33
2018-10-16T11:53:13.170Z,2.80
2018-10-16T11:55:47.476Z,2.07
2018-10-16T12:01:16.648Z,2.03
2018-10-16T12:03:53.720Z,1.90
2018-10-16T12:06:29.063Z,2.00
2018-10-16T12:09:04.821Z,1.80
2018-10-16T12:11:42.774Z,2.13
2018-10-16T12:14:19.363Z,1.77
2018-10-16T12:17:00.859Z,1.77
2018-10-16T12:25:47.928Z,1.87
2018-10-16T12:29:20.625Z,1.80
2018-10-16T12:32:08.914Z,1.77
2018-10-16T12:34:44.671Z,1.80
2018-10-16T12:40:25.733Z,1.60
2018-10-16T12:43:15.127Z,1.70
2018-10-16T12:48:48.016Z,1.70
2018-10-16T12:55:08.344Z,1.63
2018-10-16T13:03:28.390Z,1.40
2018-10-16T13:21:08.612Z,1.00
2018-10-16T13:31:29.161Z,0.90
2018-10-16T13:38:16.333Z,0.90
2018-10-16T13:43:57.643Z,0.93
2018-10-16T13:55:15.935Z,0.90
2018-10-16T14:03:41.939Z,0.80
2018-10-16T14:09:04.409Z,0.80
2018-10-16T14:26:21.507Z,0.70
2018-10-16T14:29:59.220Z,0.73
2018-10-16T14:33:05.690Z,0.87
2018-10-16T14:35:51.667Z,0.90
2018-10-16T14:38:41.005Z,1.20
2018-10-16T14:49:12.267Z,1.00
2018-10-16T14:54:56.511Z,0.93
2018-10-16T15:00:36.382Z,0.90
2018-10-16T15:48:57.068Z,0.70
2018-10-16T15:51:37.212Z,0.80
2018-10-16T15:54:12.655Z,1.00
2018-10-16T15:56:49.829Z,0.67
2018-10-16T16:25:40.181Z,0.77
2018-10-16T16:33:31.236Z,0.60
2018-10-16T16:38:48.589Z,0.63
2018-10-16T16:41:22.750Z,1.10
2018-10-16T16:44:04.049Z,0.90
2018-10-16T16:46:40.259Z,0.83
2018-10-16T16:49:22.228Z,0.60
2018-10-16T16:51:56.690Z,0.80
2018-10-16T16:54:31.042Z,0.73
2018-10-16T16:57:05.434Z,0.70
2018-10-16T16:59:40.457Z,0.80
2018-10-16T17:02:14.392Z,0.87
2018-10-16T17:04:48.544Z,1.30
2018-10-16T17:07:23.738Z,0.70
2018-10-16T17:09:59.410Z,0.53
2018-10-16T17:12:33.772Z,1.00
2018-10-16T17:15:09.507Z,0.80
2018-10-16T17:17:45.342Z,0.70
2018-10-16T17:20:19.164Z,0.90
2018-10-16T17:22:53.168Z,0.57
2018-10-16T17:25:27.754Z,0.73
2018-10-16T17:28:02.003Z,0.70
2018-10-16T17:30:37.458Z,0.70
2018-10-16T17:33:11.899Z,0.57
2018-10-16T17:35:45.882Z,0.53
2018-10-16T17:38:19.958Z,0.80
2018-10-16T17:40:54.133Z,0.60
2018-10-16T17:43:28.407Z,0.60
2018-10-16T17:46:02.498Z,0.60
2018-10-16T17:48:36.607Z,0.90
2018-10-16T17:51:11.035Z,0.70
2018-10-16T17:53:45.594Z,1.17
2018-10-16T17:56:20.490Z,1.00
2018-10-16T17:58:54.971Z,0.90
2018-10-16T18:01:30.360Z,0.80
2018-10-16T18:04:04.700Z,0.90
2018-10-16T18:06:38.967Z,1.23
2018-10-16T18:09:13.107Z,0.77
2018-10-16T18:11:47.020Z,1.10
2018-10-16T18:14:20.841Z,1.07
2018-10-16T18:16:56.329Z,1.10
2018-10-16T18:19:38.049Z,1.00
2018-10-16T18:40:28.587Z,1.10
2018-10-16T18:46:58.101Z,0.90
2018-10-16T18:49:41.002Z,1.30
2018-10-16T18:52:15.856Z,1.20
2018-10-16T18:57:54.222Z,1.17
2018-10-16T19:03:18.579Z,1.37
2018-10-16T19:11:40.160Z,1.37
2018-10-16T19:14:17.168Z,1.20
2018-10-16T19:17:02.416Z,1.33
2018-10-16T19:19:43.828Z,1.20
2018-10-16T19:22:32.874Z,1.40
2018-10-16T19:25:16.355Z,1.23
2018-10-16T19:27:53.916Z,1.60
2018-10-16T19:30:35.954Z,1.50
2018-10-16T19:33:10.074Z,1.40
2018-10-16T19:35:44.305Z,1.23
2018-10-16T19:41:17.993Z,1.37
2018-10-16T19:43:52.275Z,1.10
2018-10-16T19:46:26.783Z,1.20
2018-10-16T19:49:03.867Z,1.27
2018-10-16T19:51:49.620Z,1.50
2018-10-16T19:54:24.657Z,1.70
2018-10-16T19:56:59.508Z,1.57
2018-10-16T19:59:33.892Z,1.60
2018-10-16T20:02:08.834Z,1.57
2018-10-16T20:04:43.528Z,1.80
2018-10-16T20:07:22.630Z,1.77
2018-10-16T20:09:56.802Z,1.70
2018-10-16T20:17:50.524Z,1.60
2018-10-16T20:20:24.431Z,1.67
2018-10-16T20:23:02.429Z,1.83
2018-10-16T20:25:36.600Z,1.90
2018-10-16T20:28:10.746Z,1.90
2018-10-16T20:30:44.980Z,2.00
2018-10-16T20:33:28.540Z,2.37
2018-10-16T20:36:14.060Z,2.83
2018-10-16T20:38:48.058Z,2.90
2018-10-16T20:41:22.491Z,2.97
2018-10-16T20:43:56.855Z,2.80
2018-10-16T20:46:31.082Z,2.80
2018-10-16T20:49:05.761Z,2.73
2018-10-16T20:51:39.831Z,3.37
2018-10-16T20:54:13.980Z,3.17
2018-10-16T20:56:48.226Z,3.17
2018-10-16T20:59:22.727Z,2.60
2018-10-16T21:01:57.315Z,3.13
2018-10-16T21:04:32.349Z,2.53
2018-10-16T21:07:07.403Z,2.43
2018-10-16T21:09:41.222Z,3.03
2018-10-16T21:12:21.260Z,2.90
2018-10-16T21:14:58.616Z,2.80
2018-10-16T21:17:33.212Z,2.90
2018-10-16T21:20:08.095Z,2.90
2018-10-16T21:22:44.718Z,3.40
2018-10-16T21:25:20.579Z,3.40
2018-10-16T21:28:07.248Z,3.47
2018-10-16T21:30:42.517Z,3.47
2018-10-16T21:33:22.229Z,3.67
2018-10-16T21:35:56.335Z,3.47
2018-10-16T21:38:33.210Z,3.60
2018-10-16T21:41:07.188Z,3.57
2018-10-16T21:43:42.085Z,3.90
2018-10-16T21:46:17.293Z,4.37
2018-10-16T21:48:51.473Z,4.60
2018-10-16T21:51:26.116Z,4.90
2018-10-16T21:54:00.129Z,4.43
2018-10-16T21:56:34.092Z,4.40
2018-10-16T21:59:08.719Z,4.20
2018-10-16T22:01:49.982Z,4.80
2018-10-16T22:04:24.199Z,5.07
2018-10-16T22:06:59.303Z,5.10
2018-10-16T22:09:33.460Z,5.20
2018-10-16T22:12:07.544Z,5.13
2018-10-16T22:14:41.697Z,4.87
2018-10-16T22:17:18.984Z,5.50
2018-10-16T22:19:52.903Z,5.40
2018-10-16T22:22:28.019Z,5.37
2018-10-16T22:25:03.540Z,5.13
2018-10-16T22:27:38.310Z,5.57
2018-10-16T22:30:15.865Z,5.30
2018-10-16T22:32:50.116Z,5.80
2018-10-16T22:35:24.292Z,5.47
2018-10-16T22:37:58.554Z,5.30
2018-10-16T22:40:32.756Z,5.43
2018-10-16T22:43:06.910Z,6.13
2018-10-16T22:45:41.244Z,5.13
2018-10-16T22:48:15.407Z,5.90
2018-10-16T22:50:49.488Z,4.90
2018-10-16T22:53:23.653Z,5.20
2018-10-16T22:55:57.942Z,5.40
2018-10-16T22:58:32.338Z,5.00
2018-10-16T23:01:07.323Z,4.80
2018-10-16T23:03:44.664Z,4.73
2018-10-16T23:06:22.476Z,5.07
2018-10-16T23:09:00.444Z,5.50
2018-10-16T23:11:39.506Z,5.80
2018-10-16T23:14:13.707Z,5.97
2018-10-16T23:16:47.957Z,5.60
2018-10-16T23:19:22.069Z,6.30
2018-10-16T23:21:59.037Z,6.10
2018-10-16T23:24:33.276Z,6.23
2018-10-16T23:27:07.483Z,6.60
2018-10-16T23:29:43.636Z,6.43
2018-10-16T23:32:17.676Z,6.43
2018-10-16T23:34:54.911Z,6.53
2018-10-16T23:37:29.556Z,6.40
2018-10-16T23:40:05.892Z,6.43
2018-10-16T23:42:40.121Z,6.80
2018-10-16T23:45:14.437Z,6.60
2018-10-16T23:47:48.522Z,6.50
2018-10-16T23:50:25.279Z,6.37
2018-10-16T23:52:59.495Z,6.13
2018-10-16T23:55:33.482Z,5.53
2018-10-16T23:58:07.587Z,5.93
